createdAt,value
2023-03-26T00:03:22.145Z,100104.25
2023-03-26T00:06:50.424Z,100108.44
2023-03-26T00:10:18.241Z,100104.04
2023-03-26T00:13:45.860Z,100102.10
2023-03-26T00:16:53.923Z,100102.90
2023-03-26T00:20:02.667Z,100094.15
2023-03-26T00:23:30.434Z,100100.05
2023-03-26T00:26:58.640Z,100097.60
2023-03-26T00:30:26.503Z,100100.84
2023-03-26T00:33:35.213Z,100106.85
2023-03-26T00:37:03.104Z,100102.08
2023-03-26T00:40:30.990Z,100102.53
2023-03-26T00:43:58.988Z,100120.42
2023-03-26T00:47:26.807Z,100128.08
2023-03-26T00:50:15.464Z,100129.81
2023-03-26T00:53:43.148Z,100131.14
2023-03-26T00:57:11.053Z,100130.42
2023-03-26T01:00:38.984Z,100127.38
2023-03-26T01:04:08.828Z,100120.00
2023-03-26T01:07:34.974Z,100112.16
2023-03-26T01:11:03.049Z,100107.36
2023-03-26T01:14:30.992Z,100106.85
2023-03-26T01:17:39.956Z,100108.61
2023-03-26T01:21:07.771Z,100105.05
2023-03-26T01:24:35.632Z,100098.06
2023-03-26T01:28:03.386Z,100090.31
2023-03-26T01:31:30.982Z,100081.81
2023-03-26T01:34:58.957Z,100094.79
2023-03-26T01:38:26.822Z,100098.56
2023-03-26T01:41:35.230Z,100092.40
2023-03-26T01:45:03.271Z,100099.76
2023-03-26T01:48:31.288Z,100099.13
2023-03-26T01:51:59.102Z,100105.77
2023-03-26T01:55:27.655Z,100107.74
2023-03-26T01:58:55.549Z,100110.23
2023-03-26T02:05:32.807Z,100101.56
2023-03-26T02:08:22.624Z,100101.20
2023-03-26T02:11:50.298Z,100104.20
2023-03-26T02:15:18.175Z,100108.24
2023-03-26T02:18:46.076Z,100100.54
2023-03-26T02:21:55.281Z,100104.16
2023-03-26T02:25:23.212Z,100105.42
2023-03-26T02:28:50.997Z,100103.36
2023-03-26T02:32:18.715Z,100103.48
2023-03-26T02:35:07.872Z,100104.34
2023-03-26T02:38:35.670Z,100104.09
2023-03-26T02:42:03.544Z,100109.97
2023-03-26T02:45:31.657Z,100116.63
2023-03-26T02:48:51.787Z,100116.08
2023-03-26T02:52:00.931Z,100112.79
2023-03-26T02:55:28.698Z,100119.88
2023-03-26T02:58:56.733Z,100117.92
2023-03-26T03:02:24.528Z,100116.77
2023-03-26T03:05:52.879Z,100116.03
2023-03-26T03:09:01.444Z,100120.33
2023-03-26T03:11:56.161Z,100125.36
2023-03-26T03:15:24.054Z,100128.40
2023-03-26T03:18:51.860Z,100128.60
2023-03-26T03:22:19.909Z,100118.42
2023-03-26T03:25:29.077Z,100127.58
2023-03-26T03:28:56.952Z,100118.54
2023-03-26T03:32:24.777Z,100127.23
2023-03-26T03:35:33.785Z,100127.80
2023-03-26T03:39:01.418Z,100119.46
2023-03-26T03:42:11.705Z,100126.95
2023-03-26T03:45:39.462Z,100124.77
2023-03-26T03:49:25.835Z,100126.93
2023-03-26T03:52:35.599Z,100128.53
2023-03-26T03:56:03.440Z,100127.67
2023-03-26T03:59:31.378Z,100122.33
2023-03-26T04:02:40.356Z,100130.39
2023-03-26T04:05:49.608Z,100136.66
2023-03-26T04:09:17.504Z,100133.54
2023-03-26T04:12:06.805Z,100136.52
2023-03-26T04:15:34.728Z,100128.81
2023-03-26T04:18:43.480Z,100129.71
2023-03-26T04:22:11.449Z,100125.77
2023-03-26T04:25:39.083Z,100129.40
2023-03-26T04:29:06.879Z,100134.44
2023-03-26T04:32:34.604Z,100130.12
2023-03-26T04:36:02.422Z,100133.05
2023-03-26T04:39:30.304Z,100132.72
2023-03-26T04:42:58.300Z,100126.23
2023-03-26T04:46:06.140Z,100122.48
2023-03-26T04:49:14.941Z,100125.41
2023-03-26T04:52:44.975Z,100122.16
2023-03-26T04:56:22.960Z,100129.17
2023-03-26T04:59:53.356Z,100118.02
2023-03-26T05:03:21.239Z,100119.46
2023-03-26T05:06:48.961Z,100122.89
2023-03-26T05:10:22.763Z,100134.02
2023-03-26T05:13:31.400Z,100136.88
2023-03-26T05:16:59.210Z,100136.80
2023-03-26T05:20:07.480Z,100144.14
2023-03-26T05:22:37.934Z,100155.16
2023-03-26T05:25:46.302Z,100160.95
2023-03-26T05:28:56.775Z,100170.14
2023-03-26T05:32:24.539Z,100178.61
2023-03-26T05:35:52.345Z,100181.62
2023-03-26T05:39:20.164Z,100180.91
2023-03-26T05:42:46.512Z,100193.77
2023-03-26T05:45:41.699Z,100196.64
2023-03-26T05:49:09.372Z,100200.45
2023-03-26T05:51:59.095Z,100200.61
2023-03-26T05:55:36.372Z,100202.50
2023-03-26T05:59:03.073Z,100202.20
2023-03-26T06:02:14.563Z,100198.52
2023-03-26T06:05:02.039Z,100203.41
2023-03-26T06:08:39.055Z,100203.83
2023-03-26T06:12:06.808Z,100208.95
2023-03-26T06:15:34.803Z,100203.84
2023-03-26T06:18:46.405Z,100203.76
2023-03-26T06:22:29.496Z,100203.61
2023-03-26T06:25:40.367Z,100200.73
2023-03-26T06:28:47.923Z,100200.84
2023-03-26T06:31:59.601Z,100199.11
2023-03-26T06:35:33.028Z,100199.96
2023-03-26T06:39:00.888Z,100203.63
2023-03-26T06:43:06.553Z,100208.82
2023-03-26T06:45:55.649Z,100201.71
2023-03-26T06:49:22.093Z,100200.01
2023-03-26T06:52:52.814Z,100197.08
2023-03-26T06:56:27.094Z,100200.12
2023-03-26T06:59:55.278Z,100201.77
2023-03-26T07:03:21.679Z,100205.50
2023-03-26T07:06:29.562Z,100210.79
2023-03-26T07:09:56.070Z,100207.40
2023-03-26T07:13:07.709Z,100217.09
2023-03-26T07:16:45.523Z,100220.48
2023-03-26T07:20:06.284Z,100220.58
2023-03-26T07:23:33.918Z,100220.45
2023-03-26T07:26:45.740Z,100220.42
2023-03-26T07:30:13.386Z,100216.85
2023-03-26T07:33:24.258Z,100213.85
2023-03-26T07:36:52.332Z,100209.25
2023-03-26T07:40:26.387Z,100213.44
2023-03-26T07:44:03.405Z,100214.87
2023-03-26T07:47:10.054Z,100207.18
2023-03-26T07:50:21.602Z,100201.14
2023-03-26T07:53:34.400Z,100200.16
2023-03-26T07:56:22.735Z,100198.55
2023-03-26T07:59:31.097Z,100194.54
2023-03-26T08:02:57.817Z,100188.84
2023-03-26T08:06:12.949Z,100188.02
2023-03-26T08:09:52.636Z,100186.50
2023-03-26T08:13:20.457Z,100182.58
2023-03-26T08:16:48.329Z,100180.15
2023-03-26T08:20:16.120Z,100182.72
2023-03-26T08:23:50.478Z,100173.89
2023-03-26T08:27:11.809Z,100179.59
2023-03-26T08:30:39.651Z,100177.73
2023-03-26T08:34:07.716Z,100171.73
2023-03-26T08:37:16.683Z,100170.70
2023-03-26T08:40:44.521Z,100169.04
2023-03-26T08:44:12.608Z,100173.25
2023-03-26T08:47:40.276Z,100166.36
2023-03-26T08:51:08.122Z,100171.19
2023-03-26T08:54:35.857Z,100170.51
2023-03-26T08:57:26.184Z,100179.21
2023-03-26T09:00:35.455Z,100175.80
2023-03-26T09:04:03.122Z,100180.00
2023-03-26T09:06:51.467Z,100185.34
2023-03-26T09:10:19.342Z,100176.07
2023-03-26T09:13:48.223Z,100179.57
2023-03-26T09:17:16.237Z,100177.85
2023-03-26T09:20:24.916Z,100168.50
2023-03-26T09:23:33.321Z,100159.81
2023-03-26T09:27:01.150Z,100165.09
2023-03-26T09:30:28.825Z,100163.30
2023-03-26T09:33:56.859Z,100154.41
2023-03-26T09:37:24.878Z,100146.62
2023-03-26T09:40:53.302Z,100141.34
2023-03-26T09:44:20.775Z,100140.70
2023-03-26T09:47:10.286Z,100136.59
2023-03-26T09:50:38.276Z,100139.71
2023-03-26T09:54:06.326Z,100144.98
2023-03-26T09:57:15.597Z,100142.48
2023-03-26T10:00:26.977Z,100137.60
2023-03-26T10:03:55.232Z,100131.96
2023-03-26T10:07:24.748Z,100133.02
2023-03-26T10:10:33.187Z,100125.75
2023-03-26T10:14:01.142Z,100119.15
2023-03-26T10:17:28.848Z,100116.60
2023-03-26T10:20:56.766Z,100107.15
2023-03-26T10:24:24.374Z,100100.73
2023-03-26T10:27:33.162Z,100097.95
2023-03-26T10:31:01.167Z,100093.43
2023-03-26T10:34:10.088Z,100089.31
2023-03-26T10:37:37.924Z,100084.31
2023-03-26T10:41:05.776Z,100079.59
2023-03-26T10:44:34.763Z,100074.98
2023-03-26T10:47:43.259Z,100069.73
2023-03-26T10:51:11.239Z,100065.38
2023-03-26T10:54:39.107Z,100065.36
2023-03-26T10:58:07.333Z,100056.13
2023-03-26T11:01:35.208Z,100047.88
2023-03-26T11:05:03.491Z,100036.67
2023-03-26T11:08:11.982Z,100032.08
2023-03-26T11:11:20.805Z,100027.05
2023-03-26T11:14:48.911Z,100022.02
2023-03-26T11:17:57.769Z,100014.37
2023-03-26T11:21:19.970Z,100011.61
2023-03-26T11:24:34.650Z,100009.05
2023-03-26T11:28:02.464Z,99997.83
2023-03-26T11:31:31.768Z,99987.59
2023-03-26T11:34:59.476Z,99983.76
2023-03-26T11:38:27.983Z,99973.94
2023-03-26T11:41:55.644Z,99967.76
2023-03-26T11:44:48.067Z,99968.07
2023-03-26T11:47:58.717Z,99968.18
2023-03-26T11:51:26.564Z,99956.84
2023-03-26T11:54:54.468Z,99958.66
2023-03-26T11:58:22.247Z,99951.80
2023-03-26T12:01:31.292Z,99940.70
2023-03-26T12:04:59.171Z,99935.23
2023-03-26T12:08:26.916Z,99930.92
2023-03-26T12:11:35.535Z,99928.22
2023-03-26T12:15:03.021Z,99921.95
2023-03-26T12:18:31.013Z,99912.45
2023-03-26T12:21:19.869Z,99907.21
2023-03-26T12:24:49.089Z,99899.84
2023-03-26T12:27:59.076Z,99890.55
2023-03-26T12:31:27.441Z,99888.48
2023-03-26T12:34:17.648Z,99884.76
2023-03-26T12:37:07.464Z,99883.32
2023-03-26T12:40:35.712Z,99880.48
2023-03-26T12:44:56.209Z,99868.06
2023-03-26T12:47:59.420Z,99849.05
2023-03-26T12:50:41.548Z,99848.17
2023-03-26T12:54:09.363Z,99840.83
2023-03-26T12:57:17.975Z,99835.15
2023-03-26T13:00:45.880Z,99827.02
2023-03-26T13:04:13.858Z,99830.70
2023-03-26T13:07:41.720Z,99828.25
2023-03-26T13:10:54.004Z,99821.30
2023-03-26T13:14:22.022Z,99811.51
2023-03-26T13:17:50.364Z,99808.21
2023-03-26T13:21:18.059Z,99811.10
2023-03-26T13:24:46.008Z,99800.34
2023-03-26T13:28:13.842Z,99795.14
2023-03-26T13:31:03.410Z,99789.59
2023-03-26T13:34:31.432Z,99783.16
2023-03-26T13:38:00.254Z,99776.45
2023-03-26T13:41:10.152Z,99770.00
2023-03-26T13:43:59.931Z,99762.40
2023-03-26T13:47:08.809Z,99760.84
2023-03-26T13:50:45.374Z,99753.28
2023-03-26T13:53:53.509Z,99743.89
2023-03-26T13:57:21.454Z,99742.84
2023-03-26T14:00:09.924Z,99743.45
2023-03-26T14:03:00.478Z,99740.83
2023-03-26T14:06:29.641Z,99748.38
2023-03-26T14:09:40.252Z,99746.61
2023-03-26T14:13:08.003Z,99744.96
2023-03-26T14:16:36.167Z,99738.92
2023-03-26T14:20:04.086Z,99732.19
2023-03-26T14:23:13.017Z,99727.78
2023-03-26T14:26:40.789Z,99720.00
2023-03-26T14:30:08.633Z,99713.42
2023-03-26T14:33:37.313Z,99713.23
2023-03-26T14:37:05.111Z,99700.78
2023-03-26T14:40:32.981Z,99704.24
2023-03-26T14:44:00.850Z,99705.74
2023-03-26T14:47:28.908Z,99699.66
2023-03-26T14:50:56.640Z,99689.86
2023-03-26T14:54:05.287Z,99684.29
2023-03-26T14:57:33.371Z,99677.18
2023-03-26T15:01:03.880Z,99677.73
2023-03-26T15:04:10.252Z,99670.52
2023-03-26T15:06:59.845Z,99670.23
2023-03-26T15:10:28.090Z,99663.50
2023-03-26T15:13:57.050Z,99657.79
2023-03-26T15:17:26.772Z,99651.23
2023-03-26T15:20:54.841Z,99641.34
2023-03-26T15:24:27.674Z,99637.36
2023-03-26T15:27:36.313Z,99630.98
2023-03-26T15:30:44.691Z,99623.23
2023-03-26T15:34:12.591Z,99620.50
2023-03-26T15:37:40.700Z,99621.69
2023-03-26T15:41:08.655Z,99621.34
2023-03-26T15:44:50.880Z,99615.23
2023-03-26T15:48:05.188Z,99610.86
2023-03-26T15:51:32.861Z,99608.54
2023-03-26T15:55:00.682Z,99605.50
2023-03-26T15:58:28.411Z,99604.89
2023-03-26T16:01:56.164Z,99604.73
2023-03-26T16:05:24.884Z,99600.29
2023-03-26T16:08:34.116Z,99593.84
2023-03-26T16:12:05.234Z,99594.20
2023-03-26T16:15:33.152Z,99590.51
2023-03-26T16:19:01.154Z,99583.30
2023-03-26T16:22:10.186Z,99578.34
2023-03-26T16:25:38.020Z,99573.48
2023-03-26T16:29:05.991Z,99569.02
2023-03-26T16:32:15.962Z,99562.10
2023-03-26T16:35:43.706Z,99559.58
2023-03-26T16:39:11.508Z,99556.80
2023-03-26T16:42:39.260Z,99561.04
2023-03-26T16:45:48.174Z,99554.53
2023-03-26T16:49:16.136Z,99554.44
2023-03-26T16:52:44.034Z,99550.52
2023-03-26T16:55:53.790Z,99553.25
2023-03-26T16:59:21.870Z,99547.74
2023-03-26T17:02:10.858Z,99535.23
2023-03-26T17:05:19.462Z,99531.36
2023-03-26T17:08:47.406Z,99527.29
2023-03-26T17:11:56.269Z,99527.61
2023-03-26T17:15:24.079Z,99521.80
2023-03-26T17:18:51.961Z,99514.02
2023-03-26T17:21:46.213Z,99517.67
2023-03-26T17:25:09.623Z,99519.30
2023-03-26T17:28:37.545Z,99514.07
2023-03-26T17:31:46.375Z,99511.23
2023-03-26T17:35:14.859Z,99512.48
2023-03-26T17:38:45.396Z,99506.77
2023-03-26T17:41:50.449Z,99500.21
2023-03-26T17:44:58.289Z,99490.91
2023-03-26T17:48:26.163Z,99492.34
2023-03-26T17:51:34.502Z,99496.42
2023-03-26T17:55:05.197Z,99499.73
2023-03-26T17:58:34.420Z,99506.83
2023-03-26T18:01:42.204Z,99507.63
2023-03-26T18:05:09.918Z,99504.44
2023-03-26T18:08:37.839Z,99510.80
2023-03-26T18:12:07.284Z,99507.46
2023-03-26T18:15:36.397Z,99499.04
2023-03-26T18:19:04.439Z,99497.11
2023-03-26T18:22:13.179Z,99491.90
2023-03-26T18:25:40.980Z,99489.06
2023-03-26T18:28:48.944Z,99484.17
2023-03-26T18:32:16.955Z,99486.02
2023-03-26T18:35:25.967Z,99486.02
2023-03-26T18:38:54.001Z,99479.13
2023-03-26T18:42:24.220Z,99472.16
2023-03-26T18:45:50.471Z,99466.54
2023-03-26T18:49:19.144Z,99460.94
2023-03-26T18:52:27.967Z,99451.16
2023-03-26T18:55:56.990Z,99450.13
2023-03-26T18:59:25.655Z,99443.70
2023-03-26T19:02:53.457Z,99436.66
2023-03-26T19:06:21.461Z,99429.95
2023-03-26T19:09:49.583Z,99424.14
2023-03-26T19:13:17.604Z,99417.98
2023-03-26T19:16:45.644Z,99406.77
2023-03-26T19:19:54.434Z,99406.63
2023-03-26T19:23:22.522Z,99401.98
2023-03-26T19:26:50.825Z,99397.52
2023-03-26T19:30:00.643Z,99382.19
2023-03-26T19:33:28.775Z,99372.68
2023-03-26T19:36:57.470Z,99366.31
2023-03-26T19:39:47.632Z,99364.59
2023-03-26T19:43:16.105Z,99359.02
2023-03-26T19:46:52.801Z,99350.96
2023-03-26T19:49:51.992Z,99346.42
2023-03-26T19:53:19.932Z,99340.80
2023-03-26T19:56:28.832Z,99337.42
2023-03-26T19:59:56.687Z,99328.74
2023-03-26T20:03:24.776Z,99325.95
2023-03-26T20:06:52.856Z,99316.98
2023-03-26T20:10:01.860Z,99308.52
2023-03-26T20:13:29.157Z,99306.41
2023-03-26T20:16:57.239Z,99301.27
2023-03-26T20:20:05.880Z,99294.14
2023-03-26T20:23:33.637Z,99284.55
2023-03-26T20:27:01.692Z,99278.80
2023-03-26T20:33:21.732Z,99267.17
2023-03-26T20:36:49.808Z,99268.33
2023-03-26T20:39:38.378Z,99260.73
2023-03-26T20:43:06.158Z,99255.00
2023-03-26T20:46:34.434Z,99247.11
2023-03-26T20:50:02.642Z,99243.08
2023-03-26T20:53:12.572Z,99234.48
2023-03-26T20:56:40.747Z,99225.96
2023-03-26T21:00:08.728Z,99220.05
2023-03-26T21:03:36.905Z,99202.80
2023-03-26T21:07:15.128Z,99194.51
2023-03-26T21:10:32.797Z,99188.41
2023-03-26T21:14:00.641Z,99174.34
2023-03-26T21:17:28.805Z,99157.07
2023-03-26T21:20:56.964Z,99147.52
2023-03-26T21:24:05.482Z,99142.55
2023-03-26T21:27:33.211Z,99133.60
2023-03-26T21:31:01.125Z,99127.41
2023-03-26T21:34:09.605Z,99132.41
2023-03-26T21:37:37.422Z,99126.70
2023-03-26T21:41:05.337Z,99124.75
2023-03-26T21:44:33.202Z,99119.46
2023-03-26T21:48:01.362Z,99110.42
2023-03-26T21:51:11.266Z,99103.70
2023-03-26T21:54:39.041Z,99094.78
2023-03-26T21:58:06.938Z,99087.70
2023-03-26T22:01:35.067Z,99077.45
2023-03-26T22:05:03.318Z,99066.94
2023-03-26T22:08:31.178Z,99053.91
2023-03-26T22:11:58.963Z,99044.95
2023-03-26T22:15:26.954Z,99036.82
2023-03-26T22:18:55.162Z,99030.92
2023-03-26T22:22:04.053Z,99020.92
2023-03-26T22:25:12.829Z,99014.92
2023-03-26T22:28:40.738Z,99010.50
2023-03-26T22:32:09.905Z,99000.76
2023-03-26T22:35:37.624Z,98994.77
2023-03-26T22:39:05.320Z,98981.48
2023-03-26T22:42:33.330Z,98974.95
2023-03-26T22:46:01.773Z,98975.95
2023-03-26T22:49:10.141Z,98969.94
2023-03-26T22:52:18.905Z,98971.13
2023-03-26T22:55:28.154Z,98965.38
2023-03-26T22:58:55.602Z,98954.02
2023-03-26T23:02:23.711Z,98953.13
2023-03-26T23:05:31.481Z,98949.92
2023-03-26T23:08:40.576Z,98951.23
2023-03-26T23:12:08.566Z,98952.86
2023-03-26T23:14:57.594Z,98946.33
2023-03-26T23:18:25.424Z,98944.76
2023-03-26T23:21:53.850Z,98941.80
2023-03-26T23:25:21.957Z,98935.25
2023-03-26T23:28:50.008Z,98936.46
2023-03-26T23:32:23.393Z,98935.91
2023-03-26T23:35:45.773Z,98933.80
2023-03-26T23:38:44.144Z,98929.65
2023-03-26T23:42:04.229Z,98920.99
2023-03-26T23:45:32.022Z,98923.15
2023-03-26T23:49:00.345Z,98912.17
2023-03-26T23:52:08.974Z,98904.85
2023-03-26T23:55:17.223Z,98898.04
2023-03-26T23:58:45.127Z,98889.50
